sensor_id;sensor_type;location;lat;lon;timestamp;P1;durP1;ratioP1;P2;durP2;ratioP2
59788;SDS011;47353;51.614;5.530;2023-02-28T00:01:19;16.27;;;9.40;;
59788;SDS011;47353;51.614;5.530;2023-02-28T00:03:44;16.73;;;9.90;;
59788;SDS011;47353;51.614;5.530;2023-02-28T00:06:10;14.87;;;9.50;;
59788;SDS011;47353;51.614;5.530;2023-02-28T00:08:36;15.63;;;9.40;;
59788;SDS011;47353;51.614;5.530;2023-02-28T00:11:02;15.87;;;9.30;;
59788;SDS011;47353;51.614;5.530;2023-02-28T00:13:30;16.73;;;9.40;;
59788;SDS011;47353;51.614;5.530;2023-02-28T00:16:02;13.47;;;9.30;;
59788;SDS011;47353;51.614;5.530;2023-02-28T00:18:29;16.67;;;9.50;;
59788;SDS011;47353;51.614;5.530;2023-02-28T00:20:55;15.77;;;9.90;;
59788;SDS011;47353;51.614;5.530;2023-02-28T00:23:20;16.53;;;9.87;;
59788;SDS011;47353;51.614;5.530;2023-02-28T00:25:46;19.03;;;9.73;;
59788;SDS011;47353;51.614;5.530;2023-02-28T00:28:11;13.07;;;8.80;;
59788;SDS011;47353;51.614;5.530;2023-02-28T00:30:37;15.93;;;9.57;;
59788;SDS011;47353;51.614;5.530;2023-02-28T00:33:02;15.23;;;10.00;;
59788;SDS011;47353;51.614;5.530;2023-02-28T00:35:27;14.83;;;9.30;;
59788;SDS011;47353;51.614;5.530;2023-02-28T00:37:53;15.30;;;9.37;;
59788;SDS011;47353;51.614;5.530;2023-02-28T00:40:18;13.57;;;9.70;;
59788;SDS011;47353;51.614;5.530;2023-02-28T00:42:45;16.63;;;9.50;;
59788;SDS011;47353;51.614;5.530;2023-02-28T00:45:10;14.40;;;9.40;;
59788;SDS011;47353;51.614;5.530;2023-02-28T00:47:35;17.07;;;9.70;;
59788;SDS011;47353;51.614;5.530;2023-02-28T00:50:01;15.87;;;9.83;;
59788;SDS011;47353;51.614;5.530;2023-02-28T00:52:27;13.67;;;9.30;;
59788;SDS011;47353;51.614;5.530;2023-02-28T00:54:52;17.17;;;10.10;;
59788;SDS011;47353;51.614;5.530;2023-02-28T00:57:18;16.57;;;9.70;;
59788;SDS011;47353;51.614;5.530;2023-02-28T00:59:43;16.10;;;9.50;;
59788;SDS011;47353;51.614;5.530;2023-02-28T01:02:08;14.93;;;9.77;;
59788;SDS011;47353;51.614;5.530;2023-02-28T01:04:34;14.70;;;9.87;;
59788;SDS011;47353;51.614;5.530;2023-02-28T01:07:00;14.37;;;9.43;;
59788;SDS011;47353;51.614;5.530;2023-02-28T01:09:25;18.77;;;9.83;;
59788;SDS011;47353;51.614;5.530;2023-02-28T01:11:50;14.73;;;9.63;;
59788;SDS011;47353;51.614;5.530;2023-02-28T01:14:16;16.00;;;9.33;;
59788;SDS011;47353;51.614;5.530;2023-02-28T01:16:43;16.17;;;9.93;;
59788;SDS011;47353;51.614;5.530;2023-02-28T01:19:08;16.53;;;10.10;;
59788;SDS011;47353;51.614;5.530;2023-02-28T01:21:34;14.83;;;9.90;;
59788;SDS011;47353;51.614;5.530;2023-02-28T01:24:00;17.60;;;9.63;;
59788;SDS011;47353;51.614;5.530;2023-02-28T01:26:26;15.70;;;9.83;;
59788;SDS011;47353;51.614;5.530;2023-02-28T01:28:51;15.57;;;9.93;;
59788;SDS011;47353;51.614;5.530;2023-02-28T01:31:18;13.93;;;9.47;;
59788;SDS011;47353;51.614;5.530;2023-02-28T01:33:44;19.83;;;10.27;;
59788;SDS011;47353;51.614;5.530;2023-02-28T01:36:11;19.20;;;10.57;;
59788;SDS011;47353;51.614;5.530;2023-02-28T01:38:38;18.40;;;10.10;;
59788;SDS011;47353;51.614;5.530;2023-02-28T01:41:05;18.77;;;10.53;;
59788;SDS011;47353;51.614;5.530;2023-02-28T01:43:35;16.73;;;10.17;;
59788;SDS011;47353;51.614;5.530;2023-02-28T01:46:18;14.17;;;9.20;;
59788;SDS011;47353;51.614;5.530;2023-02-28T01:48:45;14.63;;;9.50;;
59788;SDS011;47353;51.614;5.530;2023-02-28T01:51:17;16.40;;;10.47;;
59788;SDS011;47353;51.614;5.530;2023-02-28T01:53:54;15.03;;;10.13;;
59788;SDS011;47353;51.614;5.530;2023-02-28T01:56:24;14.97;;;10.00;;
59788;SDS011;47353;51.614;5.530;2023-02-28T01:58:53;16.80;;;11.07;;
59788;SDS011;47353;51.614;5.530;2023-02-28T02:01:20;16.13;;;10.13;;
59788;SDS011;47353;51.614;5.530;2023-02-28T02:03:51;15.40;;;10.13;;
59788;SDS011;47353;51.614;5.530;2023-02-28T02:08:56;14.97;;;9.47;;
59788;SDS011;47353;51.614;5.530;2023-02-28T02:11:21;15.33;;;10.27;;
59788;SDS011;47353;51.614;5.530;2023-02-28T02:14:26;16.70;;;9.97;;
59788;SDS011;47353;51.614;5.530;2023-02-28T02:17:06;17.23;;;10.00;;
59788;SDS011;47353;51.614;5.530;2023-02-28T02:27:46;16.23;;;10.33;;
59788;SDS011;47353;51.614;5.530;2023-02-28T02:33:42;14.87;;;9.87;;
59788;SDS011;47353;51.614;5.530;2023-02-28T02:36:24;15.27;;;9.50;;
59788;SDS011;47353;51.614;5.530;2023-02-28T02:41:34;16.27;;;9.83;;
59788;SDS011;47353;51.614;5.530;2023-02-28T02:44:18;16.93;;;9.87;;
59788;SDS011;47353;51.614;5.530;2023-02-28T02:46:48;16.37;;;9.73;;
59788;SDS011;47353;51.614;5.530;2023-02-28T02:49:26;16.40;;;10.03;;
59788;SDS011;47353;51.614;5.530;2023-02-28T02:51:55;14.63;;;9.33;;
59788;SDS011;47353;51.614;5.530;2023-02-28T02:54:24;14.10;;;9.87;;
59788;SDS011;47353;51.614;5.530;2023-02-28T02:56:53;14.33;;;9.73;;
59788;SDS011;47353;51.614;5.530;2023-02-28T02:59:22;17.30;;;9.23;;
59788;SDS011;47353;51.614;5.530;2023-02-28T03:01:50;16.20;;;9.33;;
59788;SDS011;47353;51.614;5.530;2023-02-28T03:04:20;16.20;;;9.33;;
59788;SDS011;47353;51.614;5.530;2023-02-28T03:06:49;14.87;;;8.80;;
59788;SDS011;47353;51.614;5.530;2023-02-28T03:09:19;12.37;;;8.93;;
59788;SDS011;47353;51.614;5.530;2023-02-28T03:11:46;14.83;;;9.20;;
59788;SDS011;47353;51.614;5.530;2023-02-28T03:17:02;13.57;;;8.60;;
59788;SDS011;47353;51.614;5.530;2023-02-28T03:28:07;12.03;;;8.40;;
59788;SDS011;47353;51.614;5.530;2023-02-28T03:35:55;13.13;;;8.27;;
59788;SDS011;47353;51.614;5.530;2023-02-28T03:41:00;12.00;;;8.17;;
59788;SDS011;47353;51.614;5.530;2023-02-28T03:43:33;13.70;;;8.37;;
59788;SDS011;47353;51.614;5.530;2023-02-28T03:46:02;15.43;;;8.60;;
59788;SDS011;47353;51.614;5.530;2023-02-28T03:48:43;11.63;;;8.00;;
59788;SDS011;47353;51.614;5.530;2023-02-28T03:51:14;13.60;;;8.53;;
59788;SDS011;47353;51.614;5.530;2023-02-28T03:53:44;12.73;;;8.47;;
59788;SDS011;47353;51.614;5.530;2023-02-28T03:56:20;14.60;;;8.20;;
59788;SDS011;47353;51.614;5.530;2023-02-28T04:01:56;15.47;;;7.87;;
59788;SDS011;47353;51.614;5.530;2023-02-28T04:04:23;14.47;;;8.30;;
59788;SDS011;47353;51.614;5.530;2023-02-28T04:06:50;15.53;;;8.13;;
59788;SDS011;47353;51.614;5.530;2023-02-28T04:09:16;12.77;;;8.43;;
59788;SDS011;47353;51.614;5.530;2023-02-28T04:11:43;14.47;;;8.20;;
59788;SDS011;47353;51.614;5.530;2023-02-28T04:14:11;12.10;;;7.63;;
59788;SDS011;47353;51.614;5.530;2023-02-28T04:16:39;14.27;;;7.73;;
59788;SDS011;47353;51.614;5.530;2023-02-28T04:19:06;15.07;;;8.20;;
59788;SDS011;47353;51.614;5.530;2023-02-28T04:23:59;12.20;;;8.57;;
59788;SDS011;47353;51.614;5.530;2023-02-28T04:26:32;12.63;;;7.63;;
59788;SDS011;47353;51.614;5.530;2023-02-28T04:28:59;13.00;;;8.30;;
59788;SDS011;47353;51.614;5.530;2023-02-28T04:31:25;14.27;;;8.13;;
59788;SDS011;47353;51.614;5.530;2023-02-28T04:33:51;11.07;;;7.63;;
59788;SDS011;47353;51.614;5.530;2023-02-28T04:36:16;11.33;;;7.80;;
59788;SDS011;47353;51.614;5.530;2023-02-28T04:38:43;12.50;;;7.50;;
59788;SDS011;47353;51.614;5.530;2023-02-28T04:41:09;11.17;;;7.13;;
59788;SDS011;47353;51.614;5.530;2023-02-28T04:43:35;12.73;;;7.80;;
59788;SDS011;47353;51.614;5.530;2023-02-28T04:46:01;10.60;;;7.73;;
59788;SDS011;47353;51.614;5.530;2023-02-28T04:48:28;10.70;;;7.03;;
59788;SDS011;47353;51.614;5.530;2023-02-28T04:50:59;11.70;;;7.63;;
59788;SDS011;47353;51.614;5.530;2023-02-28T04:53:25;12.83;;;7.50;;
59788;SDS011;47353;51.614;5.530;2023-02-28T04:55:52;13.27;;;7.60;;
59788;SDS011;47353;51.614;5.530;2023-02-28T04:58:18;12.33;;;8.07;;
59788;SDS011;47353;51.614;5.530;2023-02-28T05:00:43;10.53;;;7.40;;
59788;SDS011;47353;51.614;5.530;2023-02-28T05:03:08;13.60;;;8.03;;
59788;SDS011;47353;51.614;5.530;2023-02-28T05:05:34;14.50;;;8.53;;
59788;SDS011;47353;51.614;5.530;2023-02-28T05:08:00;14.00;;;7.90;;
59788;SDS011;47353;51.614;5.530;2023-02-28T05:10:25;10.57;;;8.10;;
59788;SDS011;47353;51.614;5.530;2023-02-28T05:12:50;12.20;;;8.43;;
59788;SDS011;47353;51.614;5.530;2023-02-28T05:15:16;12.23;;;8.20;;
59788;SDS011;47353;51.614;5.530;2023-02-28T05:17:42;11.27;;;8.20;;
59788;SDS011;47353;51.614;5.530;2023-02-28T05:20:09;14.07;;;8.30;;
59788;SDS011;47353;51.614;5.530;2023-02-28T05:22:38;14.97;;;8.73;;
59788;SDS011;47353;51.614;5.530;2023-02-28T05:25:04;12.07;;;8.40;;
59788;SDS011;47353;51.614;5.530;2023-02-28T05:27:30;11.37;;;8.20;;
59788;SDS011;47353;51.614;5.530;2023-02-28T05:29:56;12.97;;;8.00;;
59788;SDS011;47353;51.614;5.530;2023-02-28T05:32:22;13.97;;;8.30;;
59788;SDS011;47353;51.614;5.530;2023-02-28T05:34:47;14.90;;;8.33;;
59788;SDS011;47353;51.614;5.530;2023-02-28T05:37:13;13.07;;;8.20;;
59788;SDS011;47353;51.614;5.530;2023-02-28T05:39:40;13.70;;;8.07;;
59788;SDS011;47353;51.614;5.530;2023-02-28T05:42:06;12.20;;;8.00;;
59788;SDS011;47353;51.614;5.530;2023-02-28T05:44:31;12.70;;;8.33;;
59788;SDS011;47353;51.614;5.530;2023-02-28T05:46:57;11.67;;;8.20;;
59788;SDS011;47353;51.614;5.530;2023-02-28T05:49:22;11.63;;;8.07;;
59788;SDS011;47353;51.614;5.530;2023-02-28T05:51:48;11.23;;;7.83;;
59788;SDS011;47353;51.614;5.530;2023-02-28T05:54:13;12.40;;;7.93;;
59788;SDS011;47353;51.614;5.530;2023-02-28T05:56:38;11.23;;;7.63;;
59788;SDS011;47353;51.614;5.530;2023-02-28T05:59:05;12.43;;;8.37;;
59788;SDS011;47353;51.614;5.530;2023-02-28T06:03:59;11.40;;;7.53;;
59788;SDS011;47353;51.614;5.530;2023-02-28T06:06:26;13.17;;;8.03;;
59788;SDS011;47353;51.614;5.530;2023-02-28T06:08:51;12.80;;;7.70;;
59788;SDS011;47353;51.614;5.530;2023-02-28T06:11:17;10.37;;;7.70;;
59788;SDS011;47353;51.614;5.530;2023-02-28T06:13:44;13.60;;;8.17;;
59788;SDS011;47353;51.614;5.530;2023-02-28T06:16:10;12.93;;;7.63;;
59788;SDS011;47353;51.614;5.530;2023-02-28T06:18:36;13.93;;;7.87;;
59788;SDS011;47353;51.614;5.530;2023-02-28T06:21:01;14.30;;;7.37;;
59788;SDS011;47353;51.614;5.530;2023-02-28T06:23:27;11.50;;;7.77;;
59788;SDS011;47353;51.614;5.530;2023-02-28T06:25:53;14.17;;;8.47;;
59788;SDS011;47353;51.614;5.530;2023-02-28T06:28:21;10.53;;;7.87;;
59788;SDS011;47353;51.614;5.530;2023-02-28T06:30:46;17.07;;;7.73;;
59788;SDS011;47353;51.614;5.530;2023-02-28T06:33:11;11.63;;;7.80;;
59788;SDS011;47353;51.614;5.530;2023-02-28T06:35:37;12.77;;;7.63;;
59788;SDS011;47353;51.614;5.530;2023-02-28T06:38:03;12.57;;;8.17;;
59788;SDS011;47353;51.614;5.530;2023-02-28T06:40:29;11.90;;;7.83;;
59788;SDS011;47353;51.614;5.530;2023-02-28T06:42:56;11.73;;;7.90;;
59788;SDS011;47353;51.614;5.530;2023-02-28T06:45:22;14.50;;;7.20;;
59788;SDS011;47353;51.614;5.530;2023-02-28T06:47:47;11.13;;;8.10;;
59788;SDS011;47353;51.614;5.530;2023-02-28T06:50:17;13.07;;;8.30;;
59788;SDS011;47353;51.614;5.530;2023-02-28T06:52:44;13.40;;;8.20;;
59788;SDS011;47353;51.614;5.530;2023-02-28T06:55:10;14.13;;;7.97;;
59788;SDS011;47353;51.614;5.530;2023-02-28T06:57:36;13.50;;;9.00;;
59788;SDS011;47353;51.614;5.530;2023-02-28T07:00:03;13.57;;;8.30;;
59788;SDS011;47353;51.614;5.530;2023-02-28T07:02:32;11.33;;;7.30;;
59788;SDS011;47353;51.614;5.530;2023-02-28T07:04:58;12.47;;;8.10;;
59788;SDS011;47353;51.614;5.530;2023-02-28T07:07:23;12.10;;;7.57;;
59788;SDS011;47353;51.614;5.530;2023-02-28T07:09:49;12.03;;;8.03;;
59788;SDS011;47353;51.614;5.530;2023-02-28T07:12:14;12.27;;;7.97;;
59788;SDS011;47353;51.614;5.530;2023-02-28T07:14:40;9.33;;;7.30;;
59788;SDS011;47353;51.614;5.530;2023-02-28T07:17:09;11.07;;;7.50;;
59788;SDS011;47353;51.614;5.530;2023-02-28T07:19:37;10.93;;;7.23;;
59788;SDS011;47353;51.614;5.530;2023-02-28T07:22:06;11.67;;;7.20;;
59788;SDS011;47353;51.614;5.530;2023-02-28T07:24:31;10.73;;;7.77;;
59788;SDS011;47353;51.614;5.530;2023-02-28T07:26:57;11.20;;;7.50;;
59788;SDS011;47353;51.614;5.530;2023-02-28T07:29:22;13.10;;;7.90;;
59788;SDS011;47353;51.614;5.530;2023-02-28T07:31:48;12.73;;;7.70;;
59788;SDS011;47353;51.614;5.530;2023-02-28T07:34:15;11.30;;;7.20;;
59788;SDS011;47353;51.614;5.530;2023-02-28T07:36:41;12.10;;;7.07;;
59788;SDS011;47353;51.614;5.530;2023-02-28T07:39:06;12.23;;;7.53;;
59788;SDS011;47353;51.614;5.530;2023-02-28T07:41:34;13.60;;;7.43;;
59788;SDS011;47353;51.614;5.530;2023-02-28T07:44:02;12.00;;;7.10;;
59788;SDS011;47353;51.614;5.530;2023-02-28T07:46:28;11.80;;;7.33;;
59788;SDS011;47353;51.614;5.530;2023-02-28T07:48:59;10.07;;;7.50;;
59788;SDS011;47353;51.614;5.530;2023-02-28T07:51:25;12.63;;;7.20;;
59788;SDS011;47353;51.614;5.530;2023-02-28T07:53:51;10.97;;;6.97;;
59788;SDS011;47353;51.614;5.530;2023-02-28T07:56:16;10.63;;;6.93;;
59788;SDS011;47353;51.614;5.530;2023-02-28T07:58:42;8.77;;;6.43;;
59788;SDS011;47353;51.614;5.530;2023-02-28T08:01:08;10.95;;;6.57;;
59788;SDS011;47353;51.614;5.530;2023-02-28T08:03:34;8.82;;;5.97;;
59788;SDS011;47353;51.614;5.530;2023-02-28T08:06:02;8.82;;;5.70;;
59788;SDS011;47353;51.614;5.530;2023-02-28T08:08:29;8.40;;;5.30;;
59788;SDS011;47353;51.614;5.530;2023-02-28T08:10:57;11.35;;;5.05;;
59788;SDS011;47353;51.614;5.530;2023-02-28T08:13:24;5.85;;;4.32;;
59788;SDS011;47353;51.614;5.530;2023-02-28T08:15:50;7.60;;;4.03;;
59788;SDS011;47353;51.614;5.530;2023-02-28T08:18:15;4.65;;;3.17;;
59788;SDS011;47353;51.614;5.530;2023-02-28T08:20:41;5.05;;;3.50;;
59788;SDS011;47353;51.614;5.530;2023-02-28T08:23:06;5.40;;;2.90;;
59788;SDS011;47353;51.614;5.530;2023-02-28T08:25:32;4.32;;;3.05;;
59788;SDS011;47353;51.614;5.530;2023-02-28T08:27:57;3.53;;;2.70;;
59788;SDS011;47353;51.614;5.530;2023-02-28T08:30:22;3.75;;;2.90;;
59788;SDS011;47353;51.614;5.530;2023-02-28T08:32:48;3.22;;;2.55;;
59788;SDS011;47353;51.614;5.530;2023-02-28T08:35:13;4.05;;;2.92;;
59788;SDS011;47353;51.614;5.530;2023-02-28T08:37:39;3.10;;;2.28;;
59788;SDS011;47353;51.614;5.530;2023-02-28T08:40:04;3.67;;;2.28;;
59788;SDS011;47353;51.614;5.530;2023-02-28T08:42:31;3.95;;;2.90;;
59788;SDS011;47353;51.614;5.530;2023-02-28T08:44:57;5.70;;;3.00;;
59788;SDS011;47353;51.614;5.530;2023-02-28T08:47:23;5.05;;;2.90;;
59788;SDS011;47353;51.614;5.530;2023-02-28T08:49:48;4.00;;;2.63;;
59788;SDS011;47353;51.614;5.530;2023-02-28T08:52:14;5.00;;;3.05;;
59788;SDS011;47353;51.614;5.530;2023-02-28T08:54:39;4.78;;;2.97;;
59788;SDS011;47353;51.614;5.530;2023-02-28T08:57:04;5.03;;;3.00;;
59788;SDS011;47353;51.614;5.530;2023-02-28T08:59:30;3.70;;;2.58;;
59788;SDS011;47353;51.614;5.530;2023-02-28T09:01:55;5.85;;;3.33;;
59788;SDS011;47353;51.614;5.530;2023-02-28T09:04:21;3.83;;;3.13;;
59788;SDS011;47353;51.614;5.530;2023-02-28T09:06:47;3.25;;;2.70;;
59788;SDS011;47353;51.614;5.530;2023-02-28T09:09:14;3.55;;;2.80;;
59788;SDS011;47353;51.614;5.530;2023-02-28T09:11:39;3.05;;;2.15;;
59788;SDS011;47353;51.614;5.530;2023-02-28T09:14:05;4.15;;;2.60;;
59788;SDS011;47353;51.614;5.530;2023-02-28T09:16:31;4.57;;;2.25;;
59788;SDS011;47353;51.614;5.530;2023-02-28T09:18:57;3.63;;;2.50;;
59788;SDS011;47353;51.614;5.530;2023-02-28T09:21:23;6.18;;;2.20;;
59788;SDS011;47353;51.614;5.530;2023-02-28T09:23:49;3.55;;;2.03;;
59788;SDS011;47353;51.614;5.530;2023-02-28T09:26:16;42.20;;;3.65;;
59788;SDS011;47353;51.614;5.530;2023-02-28T09:28:43;3.47;;;2.30;;
59788;SDS011;47353;51.614;5.530;2023-02-28T09:31:17;2.85;;;2.10;;
59788;SDS011;47353;51.614;5.530;2023-02-28T09:33:48;2.60;;;2.20;;
59788;SDS011;47353;51.614;5.530;2023-02-28T09:36:14;3.03;;;2.25;;
59788;SDS011;47353;51.614;5.530;2023-02-28T09:38:39;5.47;;;2.25;;
59788;SDS011;47353;51.614;5.530;2023-02-28T09:41:13;3.40;;;2.15;;
59788;SDS011;47353;51.614;5.530;2023-02-28T09:43:41;3.15;;;2.13;;
59788;SDS011;47353;51.614;5.530;2023-02-28T09:48:45;2.67;;;2.00;;
59788;SDS011;47353;51.614;5.530;2023-02-28T09:53:57;3.85;;;2.20;;
59788;SDS011;47353;51.614;5.530;2023-02-28T09:56:40;2.67;;;1.88;;
59788;SDS011;47353;51.614;5.530;2023-02-28T10:04:36;2.80;;;2.22;;
59788;SDS011;47353;51.614;5.530;2023-02-28T10:07:21;2.60;;;2.10;;
59788;SDS011;47353;51.614;5.530;2023-02-28T10:09:59;3.40;;;2.00;;
59788;SDS011;47353;51.614;5.530;2023-02-28T10:12:29;2.38;;;2.15;;
59788;SDS011;47353;51.614;5.530;2023-02-28T10:14:57;2.35;;;1.88;;
59788;SDS011;47353;51.614;5.530;2023-02-28T10:17:30;3.65;;;2.08;;
59788;SDS011;47353;51.614;5.530;2023-02-28T10:20:07;4.25;;;2.20;;
59788;SDS011;47353;51.614;5.530;2023-02-28T10:22:44;7.03;;;2.17;;
59788;SDS011;47353;51.614;5.530;2023-02-28T10:25:19;2.70;;;1.90;;
59788;SDS011;47353;51.614;5.530;2023-02-28T10:27:49;2.33;;;2.00;;
59788;SDS011;47353;51.614;5.530;2023-02-28T10:30:18;2.63;;;1.90;;
59788;SDS011;47353;51.614;5.530;2023-02-28T10:32:53;3.25;;;2.00;;
59788;SDS011;47353;51.614;5.530;2023-02-28T10:35:23;2.63;;;1.60;;
59788;SDS011;47353;51.614;5.530;2023-02-28T10:37:51;3.95;;;1.75;;
59788;SDS011;47353;51.614;5.530;2023-02-28T10:43:11;2.35;;;1.75;;
59788;SDS011;47353;51.614;5.530;2023-02-28T10:45:38;2.83;;;1.75;;
59788;SDS011;47353;51.614;5.530;2023-02-28T11:01:22;2.05;;;1.60;;
59788;SDS011;47353;51.614;5.530;2023-02-28T11:04:00;2.22;;;1.92;;
59788;SDS011;47353;51.614;5.530;2023-02-28T11:06:29;2.17;;;1.90;;
59788;SDS011;47353;51.614;5.530;2023-02-28T11:09:03;2.92;;;1.77;;
59788;SDS011;47353;51.614;5.530;2023-02-28T11:11:45;2.10;;;1.88;;
59788;SDS011;47353;51.614;5.530;2023-02-28T11:14:17;1.95;;;1.65;;
59788;SDS011;47353;51.614;5.530;2023-02-28T11:16:46;1.98;;;1.73;;
59788;SDS011;47353;51.614;5.530;2023-02-28T11:19:18;2.03;;;1.80;;
59788;SDS011;47353;51.614;5.530;2023-02-28T11:22:02;2.03;;;1.83;;
59788;SDS011;47353;51.614;5.530;2023-02-28T11:24:31;1.90;;;1.77;;
59788;SDS011;47353;51.614;5.530;2023-02-28T11:27:00;1.95;;;1.75;;
59788;SDS011;47353;51.614;5.530;2023-02-28T11:29:27;1.92;;;1.73;;
59788;SDS011;47353;51.614;5.530;2023-02-28T11:34:44;4.25;;;2.00;;
59788;SDS011;47353;51.614;5.530;2023-02-28T11:37:12;2.95;;;1.70;;
59788;SDS011;47353;51.614;5.530;2023-02-28T11:39:43;3.20;;;2.10;;
59788;SDS011;47353;51.614;5.530;2023-02-28T11:56:14;1.90;;;1.80;;
59788;SDS011;47353;51.614;5.530;2023-02-28T11:58:49;2.47;;;2.05;;
59788;SDS011;47353;51.614;5.530;2023-02-28T12:07:13;2.25;;;1.90;;
59788;SDS011;47353;51.614;5.530;2023-02-28T12:28:42;2.92;;;1.85;;
59788;SDS011;47353;51.614;5.530;2023-02-28T12:31:15;10.40;;;2.40;;
59788;SDS011;47353;51.614;5.530;2023-02-28T12:33:46;3.38;;;2.55;;
59788;SDS011;47353;51.614;5.530;2023-02-28T12:36:16;5.20;;;2.58;;
59788;SDS011;47353;51.614;5.530;2023-02-28T12:41:34;3.42;;;2.08;;
59788;SDS011;47353;51.614;5.530;2023-02-28T12:44:13;4.03;;;2.05;;
59788;SDS011;47353;51.614;5.530;2023-02-28T12:46:54;2.72;;;1.90;;
59788;SDS011;47353;51.614;5.530;2023-02-28T12:49:25;2.78;;;2.03;;
59788;SDS011;47353;51.614;5.530;2023-02-28T12:51:56;2.38;;;1.95;;
59788;SDS011;47353;51.614;5.530;2023-02-28T12:57:18;3.78;;;2.50;;
59788;SDS011;47353;51.614;5.530;2023-02-28T12:59:57;3.22;;;2.10;;
59788;SDS011;47353;51.614;5.530;2023-02-28T13:10:48;2.92;;;2.45;;
59788;SDS011;47353;51.614;5.530;2023-02-28T13:13:23;2.83;;;2.35;;
59788;SDS011;47353;51.614;5.530;2023-02-28T13:21:23;2.95;;;2.60;;
59788;SDS011;47353;51.614;5.530;2023-02-28T13:26:21;2.40;;;2.20;;
59788;SDS011;47353;51.614;5.530;2023-02-28T13:31:25;2.30;;;2.10;;
59788;SDS011;47353;51.614;5.530;2023-02-28T13:38:50;2.65;;;2.15;;
59788;SDS011;47353;51.614;5.530;2023-02-28T13:49:25;2.55;;;2.30;;
59788;SDS011;47353;51.614;5.530;2023-02-28T13:57:59;3.45;;;2.67;;
59788;SDS011;47353;51.614;5.530;2023-02-28T14:08:45;4.13;;;2.83;;
59788;SDS011;47353;51.614;5.530;2023-02-28T14:11:33;5.47;;;2.63;;
59788;SDS011;47353;51.614;5.530;2023-02-28T14:14:04;4.32;;;2.60;;
59788;SDS011;47353;51.614;5.530;2023-02-28T14:16:41;5.32;;;2.58;;
59788;SDS011;47353;51.614;5.530;2023-02-28T14:19:19;4.68;;;3.00;;
59788;SDS011;47353;51.614;5.530;2023-02-28T14:31:05;5.97;;;2.80;;
59788;SDS011;47353;51.614;5.530;2023-02-28T14:33:42;3.42;;;2.80;;
59788;SDS011;47353;51.614;5.530;2023-02-28T14:38:36;4.80;;;2.83;;
59788;SDS011;47353;51.614;5.530;2023-02-28T14:41:14;4.70;;;2.60;;
59788;SDS011;47353;51.614;5.530;2023-02-28T14:43:48;4.95;;;2.70;;
59788;SDS011;47353;51.614;5.530;2023-02-28T14:46:18;3.83;;;2.55;;
59788;SDS011;47353;51.614;5.530;2023-02-28T14:48:48;3.08;;;2.53;;
59788;SDS011;47353;51.614;5.530;2023-02-28T14:51:19;5.38;;;2.53;;
59788;SDS011;47353;51.614;5.530;2023-02-28T14:53:48;3.85;;;2.70;;
59788;SDS011;47353;51.614;5.530;2023-02-28T14:56:20;3.47;;;2.53;;
59788;SDS011;47353;51.614;5.530;2023-02-28T14:58:55;3.63;;;2.70;;
59788;SDS011;47353;51.614;5.530;2023-02-28T15:01:22;5.75;;;2.70;;
59788;SDS011;47353;51.614;5.530;2023-02-28T15:03:48;3.20;;;2.70;;
59788;SDS011;47353;51.614;5.530;2023-02-28T15:06:23;3.10;;;2.80;;
59788;SDS011;47353;51.614;5.530;2023-02-28T15:09:06;4.60;;;2.65;;
59788;SDS011;47353;51.614;5.530;2023-02-28T15:11:32;3.17;;;2.88;;
59788;SDS011;47353;51.614;5.530;2023-02-28T15:14:01;4.20;;;2.90;;
59788;SDS011;47353;51.614;5.530;2023-02-28T15:16:40;3.60;;;2.83;;
59788;SDS011;47353;51.614;5.530;2023-02-28T15:21:38;4.97;;;2.80;;
59788;SDS011;47353;51.614;5.530;2023-02-28T15:24:10;4.55;;;2.75;;
59788;SDS011;47353;51.614;5.530;2023-02-28T15:26:49;4.43;;;3.25;;
59788;SDS011;47353;51.614;5.530;2023-02-28T15:29:19;3.20;;;2.90;;
59788;SDS011;47353;51.614;5.530;2023-02-28T15:31:58;3.20;;;2.90;;
59788;SDS011;47353;51.614;5.530;2023-02-28T15:34:34;4.05;;;3.17;;
59788;SDS011;47353;51.614;5.530;2023-02-28T15:37:01;6.13;;;3.63;;
59788;SDS011;47353;51.614;5.530;2023-02-28T15:39:27;4.70;;;3.10;;
59788;SDS011;47353;51.614;5.530;2023-02-28T15:42:10;3.72;;;3.10;;
59788;SDS011;47353;51.614;5.530;2023-02-28T15:44:46;3.95;;;3.08;;
59788;SDS011;47353;51.614;5.530;2023-02-28T15:47:19;4.47;;;3.40;;
59788;SDS011;47353;51.614;5.530;2023-02-28T15:50:05;4.25;;;3.20;;
59788;SDS011;47353;51.614;5.530;2023-02-28T15:52:38;3.55;;;3.22;;
59788;SDS011;47353;51.614;5.530;2023-02-28T15:55:17;3.30;;;3.00;;
59788;SDS011;47353;51.614;5.530;2023-02-28T15:57:46;5.20;;;3.40;;
59788;SDS011;47353;51.614;5.530;2023-02-28T16:00:16;3.53;;;3.00;;
59788;SDS011;47353;51.614;5.530;2023-02-28T16:02:45;3.50;;;2.90;;
59788;SDS011;47353;51.614;5.530;2023-02-28T16:07:38;3.72;;;3.13;;
59788;SDS011;47353;51.614;5.530;2023-02-28T16:10:06;4.10;;;3.08;;
59788;SDS011;47353;51.614;5.530;2023-02-28T16:12:33;3.50;;;3.20;;
59788;SDS011;47353;51.614;5.530;2023-02-28T16:15:01;4.20;;;3.13;;
59788;SDS011;47353;51.614;5.530;2023-02-28T16:17:32;4.63;;;3.67;;
59788;SDS011;47353;51.614;5.530;2023-02-28T16:19:59;3.78;;;3.38;;
59788;SDS011;47353;51.614;5.530;2023-02-28T16:22:25;5.13;;;3.50;;
59788;SDS011;47353;51.614;5.530;2023-02-28T16:24:51;6.13;;;3.90;;
59788;SDS011;47353;51.614;5.530;2023-02-28T16:27:18;4.20;;;3.58;;
59788;SDS011;47353;51.614;5.530;2023-02-28T16:29:52;4.25;;;3.42;;
59788;SDS011;47353;51.614;5.530;2023-02-28T16:32:18;5.07;;;3.28;;
59788;SDS011;47353;51.614;5.530;2023-02-28T16:34:44;4.30;;;3.60;;
59788;SDS011;47353;51.614;5.530;2023-02-28T16:37:13;4.45;;;3.70;;
59788;SDS011;47353;51.614;5.530;2023-02-28T16:39:41;5.10;;;3.75;;
59788;SDS011;47353;51.614;5.530;2023-02-28T16:42:26;5.05;;;3.90;;
59788;SDS011;47353;51.614;5.530;2023-02-28T16:44:53;4.97;;;4.03;;
59788;SDS011;47353;51.614;5.530;2023-02-28T16:47:20;4.95;;;3.97;;
59788;SDS011;47353;51.614;5.530;2023-02-28T16:49:46;5.38;;;4.20;;
59788;SDS011;47353;51.614;5.530;2023-02-28T16:52:12;4.68;;;3.75;;
59788;SDS011;47353;51.614;5.530;2023-02-28T16:54:39;5.47;;;3.80;;
59788;SDS011;47353;51.614;5.530;2023-02-28T16:57:06;8.05;;;4.10;;
59788;SDS011;47353;51.614;5.530;2023-02-28T16:59:38;4.03;;;3.63;;
59788;SDS011;47353;51.614;5.530;2023-02-28T17:02:08;4.93;;;4.03;;
59788;SDS011;47353;51.614;5.530;2023-02-28T17:04:41;7.13;;;4.13;;
59788;SDS011;47353;51.614;5.530;2023-02-28T17:07:14;5.25;;;3.80;;
59788;SDS011;47353;51.614;5.530;2023-02-28T17:09:41;5.10;;;4.32;;
59788;SDS011;47353;51.614;5.530;2023-02-28T17:12:07;5.70;;;4.10;;
59788;SDS011;47353;51.614;5.530;2023-02-28T17:14:34;6.05;;;4.43;;
59788;SDS011;47353;51.614;5.530;2023-02-28T17:16:59;5.90;;;4.22;;
59788;SDS011;47353;51.614;5.530;2023-02-28T17:19:27;5.38;;;4.45;;
59788;SDS011;47353;51.614;5.530;2023-02-28T17:21:53;6.57;;;4.72;;
59788;SDS011;47353;51.614;5.530;2023-02-28T17:24:18;6.05;;;4.43;;
59788;SDS011;47353;51.614;5.530;2023-02-28T17:26:44;5.07;;;4.43;;
59788;SDS011;47353;51.614;5.530;2023-02-28T17:29:14;5.63;;;4.15;;
59788;SDS011;47353;51.614;5.530;2023-02-28T17:31:41;8.25;;;4.70;;
59788;SDS011;47353;51.614;5.530;2023-02-28T17:34:06;6.07;;;4.30;;
59788;SDS011;47353;51.614;5.530;2023-02-28T17:36:34;5.93;;;4.38;;
59788;SDS011;47353;51.614;5.530;2023-02-28T17:39:02;5.30;;;4.60;;
59788;SDS011;47353;51.614;5.530;2023-02-28T17:41:29;5.68;;;4.20;;
59788;SDS011;47353;51.614;5.530;2023-02-28T17:43:55;7.88;;;4.95;;
59788;SDS011;47353;51.614;5.530;2023-02-28T17:46:22;6.57;;;4.75;;
59788;SDS011;47353;51.614;5.530;2023-02-28T17:48:50;7.20;;;4.80;;
59788;SDS011;47353;51.614;5.530;2023-02-28T17:51:17;6.22;;;4.63;;